createdAt,value
2018-12-09T00:01:15.518Z,7.00
2018-12-09T00:03:43.050Z,7.00
2018-12-09T00:06:10.609Z,7.00
2018-12-09T00:08:38.118Z,7.00
2018-12-09T00:11:05.650Z,7.00
2018-12-09T00:13:33.169Z,7.00
2018-12-09T00:16:00.749Z,7.00
2018-12-09T00:18:28.274Z,7.00
2018-12-09T00:20:55.823Z,6.90
2018-12-09T00:23:23.452Z,7.00
2018-12-09T00:25:50.957Z,7.00
2018-12-09T00:28:18.491Z,7.00
2018-12-09T00:30:46.036Z,7.10
2018-12-09T00:33:13.547Z,7.20
2018-12-09T00:35:41.074Z,7.20
2018-12-09T00:38:08.600Z,7.20
2018-12-09T00:40:36.130Z,7.10
2018-12-09T00:43:04.657Z,7.20
2018-12-09T00:45:32.185Z,7.10
2018-12-09T00:47:59.728Z,7.00
2018-12-09T00:50:27.261Z,6.90
2018-12-09T00:52:54.782Z,6.90
2018-12-09T00:55:22.299Z,6.80
2018-12-09T00:57:49.818Z,6.80
2018-12-09T01:00:17.406Z,6.70
2018-12-09T01:02:45.001Z,6.60
2018-12-09T01:05:12.662Z,6.50
2018-12-09T01:07:40.361Z,6.50
2018-12-09T01:10:07.950Z,6.40
2018-12-09T01:12:35.500Z,6.50
2018-12-09T01:15:03.490Z,6.50
2018-12-09T01:17:31.016Z,6.50
2018-12-09T01:19:58.538Z,6.50
2018-12-09T01:22:26.064Z,6.40
2018-12-09T01:24:53.590Z,6.40
2018-12-09T01:27:21.105Z,6.40
2018-12-09T01:29:49.166Z,6.40
2018-12-09T01:32:16.782Z,6.40
2018-12-09T01:34:44.294Z,6.40
2018-12-09T01:37:11.825Z,6.30
2018-12-09T01:39:39.343Z,6.30
2018-12-09T01:42:06.874Z,6.30
2018-12-09T01:44:34.409Z,6.40
2018-12-09T01:47:01.952Z,6.50
2018-12-09T01:49:29.473Z,6.50
2018-12-09T01:51:57.113Z,6.50
2018-12-09T01:54:24.634Z,6.50
2018-12-09T01:56:52.150Z,6.50
2018-12-09T01:59:19.704Z,6.50
2018-12-09T02:01:47.241Z,6.50
2018-12-09T02:04:14.833Z,6.50
2018-12-09T02:06:42.371Z,6.50
2018-12-09T02:09:10.053Z,6.40
2018-12-09T02:11:37.717Z,6.50
2018-12-09T02:14:05.230Z,6.60
2018-12-09T02:16:33.262Z,6.60
2018-12-09T02:19:14.424Z,6.60
2018-12-09T02:21:42.936Z,6.50
2018-12-09T02:24:10.526Z,6.50
2018-12-09T02:26:38.062Z,6.60
2018-12-09T02:29:05.569Z,6.60
2018-12-09T02:31:33.076Z,6.60
2018-12-09T02:34:00.630Z,6.60
2018-12-09T02:36:28.158Z,6.60
2018-12-09T02:38:55.701Z,6.60
2018-12-09T02:41:23.322Z,6.60
2018-12-09T02:43:50.852Z,6.60
2018-12-09T02:46:18.396Z,6.60
2018-12-09T02:48:45.913Z,6.60
2018-12-09T02:51:13.522Z,6.60
2018-12-09T02:53:41.202Z,6.60
2018-12-09T02:56:08.713Z,6.60
2018-12-09T02:58:36.262Z,6.60
2018-12-09T03:01:04.290Z,6.50
2018-12-09T03:03:31.845Z,6.60
2018-12-09T03:05:59.382Z,6.60
2018-12-09T03:08:26.937Z,6.60
2018-12-09T03:10:54.472Z,6.60
2018-12-09T03:13:22.349Z,6.60
2018-12-09T03:15:49.872Z,6.60
2018-12-09T03:18:17.522Z,6.60
2018-12-09T03:20:45.070Z,6.60
2018-12-09T03:23:12.584Z,6.70
2018-12-09T03:25:40.122Z,6.60
2018-12-09T03:28:07.637Z,6.70
2018-12-09T03:30:35.170Z,6.70
2018-12-09T03:33:02.710Z,6.80
2018-12-09T03:35:30.236Z,6.80
2018-12-09T03:37:57.775Z,6.90
2018-12-09T03:40:25.295Z,6.90
2018-12-09T03:42:52.839Z,6.90
2018-12-09T03:45:20.353Z,7.00
2018-12-09T03:47:47.871Z,7.00
2018-12-09T03:50:15.403Z,7.00
2018-12-09T03:52:42.930Z,7.00
2018-12-09T03:55:10.458Z,7.00
2018-12-09T03:57:37.989Z,7.10
2018-12-09T04:00:05.998Z,7.10
2018-12-09T04:02:33.544Z,7.10
2018-12-09T04:05:01.102Z,7.20
2018-12-09T04:07:28.640Z,7.20
2018-12-09T04:09:56.178Z,7.30
2018-12-09T04:12:23.713Z,7.30
2018-12-09T04:14:51.241Z,7.40
2018-12-09T04:17:19.068Z,7.40
2018-12-09T04:19:46.630Z,7.50
2018-12-09T04:22:14.147Z,7.50
2018-12-09T04:24:41.658Z,7.60
2018-12-09T04:27:09.216Z,7.60
2018-12-09T04:29:36.813Z,7.60
2018-12-09T04:32:04.526Z,7.60
2018-12-09T04:34:32.082Z,7.60
2018-12-09T04:36:59.637Z,7.60
2018-12-09T04:39:27.169Z,7.60
2018-12-09T04:41:54.716Z,7.50
2018-12-09T04:44:22.228Z,7.60
2018-12-09T04:46:49.765Z,7.60
2018-12-09T04:49:17.310Z,7.60
2018-12-09T04:51:52.753Z,7.60
2018-12-09T04:54:20.409Z,7.70
2018-12-09T04:56:47.945Z,7.70
2018-12-09T04:59:17.541Z,7.70
2018-12-09T05:01:45.586Z,7.70
2018-12-09T05:04:13.117Z,7.80
2018-12-09T05:06:40.720Z,7.80
2018-12-09T05:09:08.338Z,7.80
2018-12-09T05:11:35.877Z,7.80
2018-12-09T05:14:03.806Z,7.80
2018-12-09T05:16:31.358Z,7.90
2018-12-09T05:18:58.870Z,7.90
2018-12-09T05:21:26.421Z,7.90
2018-12-09T05:23:53.953Z,7.90
2018-12-09T05:26:22.004Z,7.90
2018-12-09T05:28:49.548Z,8.00
2018-12-09T05:31:17.058Z,7.90
2018-12-09T05:33:44.586Z,7.90
2018-12-09T05:36:12.112Z,7.90
2018-12-09T05:38:39.957Z,7.90
2018-12-09T05:41:07.582Z,7.80
2018-12-09T05:43:35.119Z,7.90
2018-12-09T05:46:02.657Z,7.80
2018-12-09T05:48:30.205Z,7.90
2018-12-09T05:50:57.722Z,7.90
2018-12-09T05:53:25.275Z,7.90
2018-12-09T05:55:53.181Z,7.90
2018-12-09T05:58:22.666Z,7.90
2018-12-09T06:00:50.202Z,7.80
2018-12-09T06:03:18.213Z,7.80
2018-12-09T06:05:45.760Z,7.80
2018-12-09T06:08:13.291Z,7.80
2018-12-09T06:10:40.879Z,7.80
2018-12-09T06:13:08.421Z,7.80
2018-12-09T06:15:35.957Z,7.70
2018-12-09T06:18:03.566Z,7.80
2018-12-09T06:20:31.096Z,7.80
2018-12-09T06:22:58.658Z,7.80
2018-12-09T06:25:26.168Z,7.80
2018-12-09T06:27:53.703Z,7.80
2018-12-09T06:30:21.258Z,7.80
2018-12-09T06:32:48.775Z,7.80
2018-12-09T06:35:16.321Z,7.80
2018-12-09T06:37:43.858Z,7.80
2018-12-09T06:40:11.386Z,7.80
2018-12-09T06:42:38.899Z,7.80
2018-12-09T06:45:06.583Z,7.70
2018-12-09T06:47:34.133Z,7.70
2018-12-09T06:50:01.670Z,7.70
2018-12-09T06:52:29.178Z,7.70
2018-12-09T06:54:57.025Z,7.70
2018-12-09T06:57:24.576Z,7.70
2018-12-09T06:59:52.114Z,7.70
2018-12-09T07:02:19.646Z,7.70
2018-12-09T07:04:47.163Z,7.70
2018-12-09T07:07:14.806Z,7.70
2018-12-09T07:09:42.328Z,7.60
2018-12-09T07:12:09.933Z,7.60
2018-12-09T07:14:37.453Z,7.60
2018-12-09T07:17:04.965Z,7.60
2018-12-09T07:19:32.485Z,7.70
2018-12-09T07:22:00.304Z,7.60
2018-12-09T07:24:27.846Z,7.60
2018-12-09T07:26:55.376Z,7.60
2018-12-09T07:29:22.886Z,7.60
2018-12-09T07:31:50.410Z,7.70
2018-12-09T07:34:18.337Z,7.70
2018-12-09T07:36:45.892Z,7.70
2018-12-09T07:39:13.420Z,7.80
2018-12-09T07:41:40.961Z,7.70
2018-12-09T07:44:08.504Z,7.80
2018-12-09T07:46:36.038Z,7.80
2018-12-09T07:49:03.654Z,7.80
2018-12-09T07:51:31.160Z,7.80
2018-12-09T07:53:58.691Z,7.90
2018-12-09T07:56:26.218Z,7.90
2018-12-09T07:58:53.742Z,8.00
2018-12-09T08:01:21.250Z,8.10
2018-12-09T08:03:48.781Z,8.10
2018-12-09T08:06:16.314Z,8.00
2018-12-09T08:08:43.824Z,8.10
2018-12-09T08:11:11.385Z,8.10
2018-12-09T08:13:38.893Z,8.10
2018-12-09T08:16:06.416Z,8.10
2018-12-09T08:18:33.952Z,8.10
2018-12-09T08:21:01.463Z,8.00
2018-12-09T08:23:28.978Z,8.00
2018-12-09T08:25:56.497Z,8.00
2018-12-09T08:28:24.053Z,8.00
2018-12-09T08:30:51.559Z,8.00
2018-12-09T08:33:19.066Z,8.00
2018-12-09T08:35:46.614Z,8.00
2018-12-09T08:38:14.138Z,8.00
2018-12-09T08:40:41.653Z,8.00
2018-12-09T08:43:09.188Z,8.00
2018-12-09T08:45:36.716Z,8.10
2018-12-09T08:48:04.257Z,8.10
2018-12-09T08:50:31.762Z,8.10
2018-12-09T08:52:59.273Z,8.10
2018-12-09T08:55:26.794Z,8.10
2018-12-09T08:57:54.302Z,8.20
2018-12-09T09:00:21.830Z,8.20
2018-12-09T09:02:49.352Z,8.20
2018-12-09T09:05:16.873Z,8.20
2018-12-09T09:07:44.402Z,8.30
2018-12-09T09:10:11.933Z,8.30
2018-12-09T09:12:39.450Z,8.40
2018-12-09T09:15:07.126Z,8.40
2018-12-09T09:17:34.637Z,8.50
2018-12-09T09:20:02.260Z,8.60
2018-12-09T09:22:29.766Z,8.60
2018-12-09T09:24:57.302Z,8.70
2018-12-09T09:27:24.840Z,8.70
2018-12-09T09:29:52.357Z,8.70
2018-12-09T09:32:19.900Z,8.70
2018-12-09T09:34:47.433Z,8.70
2018-12-09T09:37:14.962Z,8.70
2018-12-09T09:39:42.482Z,8.70
2018-12-09T09:42:10.008Z,8.70
2018-12-09T09:44:37.553Z,8.70
2018-12-09T09:47:05.085Z,8.60
2018-12-09T09:49:32.640Z,8.60
2018-12-09T09:52:00.157Z,8.60
2018-12-09T09:54:27.684Z,8.60
2018-12-09T09:56:55.224Z,8.50
2018-12-09T09:59:22.726Z,8.50
2018-12-09T10:01:50.245Z,8.50
2018-12-09T10:04:17.797Z,8.40
2018-12-09T10:06:45.324Z,8.40
2018-12-09T10:09:12.848Z,8.50
2018-12-09T10:11:40.388Z,8.50
2018-12-09T10:14:07.898Z,8.50
2018-12-09T10:16:35.422Z,8.50
2018-12-09T10:19:02.954Z,8.50
2018-12-09T10:21:30.491Z,8.50
2018-12-09T10:23:57.992Z,8.50
2018-12-09T10:26:25.494Z,8.40
2018-12-09T10:28:53.014Z,8.40
2018-12-09T10:31:20.554Z,8.30
2018-12-09T10:33:49.581Z,8.30
2018-12-09T10:36:17.316Z,8.20
2018-12-09T10:38:44.833Z,8.20
2018-12-09T10:41:12.365Z,8.20
2018-12-09T10:43:39.916Z,8.20
2018-12-09T10:46:07.423Z,8.20
2018-12-09T10:48:34.934Z,8.10
2018-12-09T10:51:02.477Z,8.10
2018-12-09T10:53:29.973Z,8.10
2018-12-09T10:55:57.513Z,8.10
2018-12-09T10:58:25.112Z,8.10
2018-12-09T11:00:54.640Z,8.10
2018-12-09T11:03:22.145Z,8.10
2018-12-09T11:05:49.664Z,8.20
2018-12-09T11:08:17.182Z,8.20
2018-12-09T11:10:44.712Z,8.30
2018-12-09T11:13:12.240Z,8.30
2018-12-09T11:15:39.769Z,8.30
2018-12-09T11:18:07.312Z,8.30
2018-12-09T11:20:34.842Z,8.30
2018-12-09T11:23:02.400Z,8.30
2018-12-09T11:25:29.897Z,8.30
2018-12-09T11:27:57.425Z,8.30
2018-12-09T11:30:24.945Z,8.30
2018-12-09T11:32:52.450Z,8.30
2018-12-09T11:35:19.973Z,8.40
2018-12-09T11:37:47.496Z,8.40
2018-12-09T11:40:15.005Z,8.40
2018-12-09T11:42:42.550Z,8.40
2018-12-09T11:45:10.072Z,8.40
2018-12-09T11:47:37.766Z,8.40
2018-12-09T11:50:07.333Z,8.40
2018-12-09T11:52:34.858Z,8.30
2018-12-09T11:55:02.390Z,8.30
2018-12-09T11:57:29.905Z,8.20
2018-12-09T11:59:57.430Z,8.20
2018-12-09T12:02:24.932Z,8.10
2018-12-09T12:04:52.454Z,8.10
2018-12-09T12:07:19.989Z,8.10
2018-12-09T12:09:47.528Z,8.10
2018-12-09T12:12:15.074Z,8.00
2018-12-09T12:14:42.824Z,8.00
2018-12-09T12:17:10.360Z,7.90
2018-12-09T12:19:37.867Z,7.90
2018-12-09T12:22:05.379Z,7.80
2018-12-09T12:24:32.916Z,7.80
2018-12-09T12:27:00.441Z,7.70
2018-12-09T12:29:27.988Z,7.70
2018-12-09T12:31:55.517Z,7.70
2018-12-09T12:34:23.023Z,7.60
2018-12-09T12:36:50.569Z,7.60
2018-12-09T12:39:18.104Z,7.60
2018-12-09T12:41:45.634Z,7.60
2018-12-09T12:44:13.419Z,7.60
2018-12-09T12:46:41.126Z,7.60
2018-12-09T12:49:08.905Z,7.60
2018-12-09T12:51:36.517Z,7.60
2018-12-09T12:54:05.505Z,7.60
2018-12-09T12:56:33.245Z,7.60
2018-12-09T12:59:00.775Z,7.50
2018-12-09T13:01:28.330Z,7.50
2018-12-09T13:03:55.857Z,7.50
2018-12-09T13:06:23.853Z,7.50
2018-12-09T13:08:51.602Z,7.50
2018-12-09T13:11:19.129Z,7.50
2018-12-09T13:13:46.729Z,7.50
2018-12-09T13:16:14.256Z,7.50
2018-12-09T13:18:41.779Z,7.50
2018-12-09T13:21:09.281Z,7.50
2018-12-09T13:23:36.817Z,7.50
2018-12-09T13:26:04.330Z,7.50
2018-12-09T13:28:31.834Z,7.40
2018-12-09T13:30:59.378Z,7.40
2018-12-09T13:33:26.901Z,7.40
2018-12-09T13:35:54.423Z,7.40
2018-12-09T13:38:21.945Z,7.40
2018-12-09T13:40:49.452Z,7.40
2018-12-09T13:43:16.988Z,7.40
2018-12-09T13:45:44.508Z,7.40
2018-12-09T13:48:12.112Z,7.40
2018-12-09T13:50:39.736Z,7.40
2018-12-09T13:53:07.268Z,7.30
2018-12-09T13:55:34.771Z,7.30
2018-12-09T13:58:02.308Z,7.30
2018-12-09T14:00:29.837Z,7.30
2018-12-09T14:02:57.338Z,7.20
2018-12-09T14:05:24.865Z,7.20
2018-12-09T14:07:52.415Z,7.10
2018-12-09T14:10:19.954Z,7.10
2018-12-09T14:12:47.487Z,7.10
2018-12-09T14:15:14.988Z,7.00
2018-12-09T14:17:42.506Z,7.00
2018-12-09T14:20:10.302Z,6.90
2018-12-09T14:22:37.834Z,6.90
2018-12-09T14:25:05.817Z,6.80
2018-12-09T14:27:33.344Z,6.70
2018-12-09T14:30:00.866Z,6.70
2018-12-09T14:32:28.374Z,6.60
2018-12-09T14:34:55.903Z,6.60
2018-12-09T14:37:23.558Z,6.60
2018-12-09T14:39:51.069Z,6.50
2018-12-09T14:42:18.613Z,6.50
2018-12-09T14:44:46.124Z,6.50
2018-12-09T14:47:13.732Z,6.50
2018-12-09T14:49:41.397Z,6.50
2018-12-09T14:52:08.901Z,6.50
2018-12-09T14:54:36.442Z,6.50
2018-12-09T14:57:04.060Z,6.50
2018-12-09T14:59:31.577Z,6.50
2018-12-09T15:01:59.092Z,6.50
2018-12-09T15:04:26.597Z,6.50
2018-12-09T15:06:54.132Z,6.50
2018-12-09T15:09:22.113Z,6.50
2018-12-09T15:11:49.718Z,6.50
2018-12-09T15:14:17.335Z,6.50
2018-12-09T15:16:45.012Z,6.50
2018-12-09T15:19:12.545Z,6.50
2018-12-09T15:21:40.050Z,6.50
2018-12-09T15:24:07.587Z,6.50
2018-12-09T15:26:35.178Z,6.50
2018-12-09T15:29:02.705Z,6.60
2018-12-09T15:31:30.244Z,6.50
2018-12-09T15:33:57.755Z,6.50
2018-12-09T15:36:25.312Z,6.60
2018-12-09T15:38:52.838Z,6.60
2018-12-09T15:41:20.365Z,6.60
2018-12-09T15:43:47.913Z,6.60
2018-12-09T15:46:15.437Z,6.60
2018-12-09T15:48:42.965Z,6.60
2018-12-09T15:51:10.761Z,6.60
2018-12-09T15:53:38.260Z,6.60
2018-12-09T15:56:05.786Z,6.60
2018-12-09T15:58:33.290Z,6.60
2018-12-09T16:01:00.816Z,6.60
2018-12-09T16:03:28.334Z,6.70
2018-12-09T16:05:55.858Z,6.70
2018-12-09T16:08:23.378Z,6.70
2018-12-09T16:10:50.899Z,6.70
2018-12-09T16:13:18.459Z,6.70
2018-12-09T16:15:46.066Z,6.70
2018-12-09T16:18:13.593Z,6.70
2018-12-09T16:20:41.203Z,6.70
2018-12-09T16:23:08.710Z,6.70
2018-12-09T16:25:36.257Z,6.70
2018-12-09T16:28:03.785Z,6.70
2018-12-09T16:30:31.331Z,6.80
2018-12-09T16:32:58.864Z,6.80
2018-12-09T16:35:26.446Z,6.80
2018-12-09T16:37:53.980Z,6.80
2018-12-09T16:40:21.524Z,6.80
2018-12-09T16:42:49.037Z,6.80
2018-12-09T16:45:16.894Z,6.80
2018-12-09T16:47:44.433Z,6.80
2018-12-09T16:50:11.949Z,6.80
2018-12-09T16:52:39.474Z,6.90
2018-12-09T16:55:06.989Z,6.90
2018-12-09T16:57:34.510Z,6.80
2018-12-09T17:00:02.101Z,6.80
2018-12-09T17:02:29.629Z,6.90
2018-12-09T17:04:57.164Z,6.90
2018-12-09T17:07:24.688Z,7.00
2018-12-09T17:10:00.009Z,6.90
2018-12-09T17:12:27.513Z,6.90
2018-12-09T17:14:55.060Z,6.90
2018-12-09T17:17:22.566Z,6.90
2018-12-09T17:19:50.101Z,6.90
2018-12-09T17:22:17.607Z,6.90
2018-12-09T17:24:45.163Z,6.90
2018-12-09T17:27:12.684Z,6.90
2018-12-09T17:29:40.190Z,6.90
2018-12-09T17:32:07.737Z,6.90
2018-12-09T17:34:35.242Z,6.90
2018-12-09T17:37:02.769Z,6.80
2018-12-09T17:39:30.265Z,6.80
2018-12-09T17:41:57.771Z,6.80
2018-12-09T17:44:25.298Z,6.80
2018-12-09T17:46:52.986Z,6.80
2018-12-09T17:49:20.514Z,6.80
2018-12-09T17:51:48.018Z,6.80
2018-12-09T17:54:15.540Z,6.80
2018-12-09T17:56:43.093Z,6.90
2018-12-09T17:59:10.597Z,6.90
2018-12-09T18:01:38.110Z,6.90
2018-12-09T18:04:05.630Z,6.90
2018-12-09T18:06:33.164Z,6.90
2018-12-09T18:09:00.670Z,7.00
2018-12-09T18:11:28.195Z,7.00
2018-12-09T18:13:55.725Z,7.00
2018-12-09T18:16:23.251Z,7.00
2018-12-09T18:18:50.754Z,7.00
2018-12-09T18:21:18.297Z,7.00
2018-12-09T18:23:45.821Z,7.00
2018-12-09T18:26:13.372Z,7.10
2018-12-09T18:28:40.900Z,7.10
2018-12-09T18:31:08.422Z,7.10
2018-12-09T18:33:36.211Z,7.10
2018-12-09T18:36:04.094Z,7.00
2018-12-09T18:38:31.629Z,7.00
2018-12-09T18:40:59.125Z,7.00
2018-12-09T18:43:26.678Z,7.00
2018-12-09T18:45:54.200Z,6.90
2018-12-09T18:48:21.702Z,6.90
2018-12-09T18:50:49.231Z,6.90
2018-12-09T18:53:16.742Z,6.90
2018-12-09T18:55:44.273Z,6.90
2018-12-09T18:58:11.802Z,6.90
2018-12-09T19:00:39.329Z,6.80
2018-12-09T19:03:06.933Z,6.80
2018-12-09T19:05:34.574Z,6.80
2018-12-09T19:08:02.357Z,6.80
2018-12-09T19:10:29.863Z,6.80
2018-12-09T19:12:57.382Z,6.80
2018-12-09T19:15:24.901Z,6.80
2018-12-09T19:17:52.402Z,6.80
2018-12-09T19:20:19.941Z,6.90
2018-12-09T19:22:47.464Z,6.80
2018-12-09T19:25:14.982Z,6.80
2018-12-09T19:27:42.513Z,6.80
2018-12-09T19:30:10.239Z,6.70
2018-12-09T19:32:37.746Z,6.80
2018-12-09T19:35:05.268Z,6.70
2018-12-09T19:37:32.885Z,6.70
2018-12-09T19:40:00.418Z,6.70
2018-12-09T19:42:27.964Z,6.80
2018-12-09T19:44:55.469Z,6.70
2018-12-09T19:47:22.974Z,6.70
2018-12-09T19:49:50.523Z,6.70
2018-12-09T19:52:18.053Z,6.80
2018-12-09T19:54:45.576Z,6.80
2018-12-09T19:57:13.120Z,6.80
2018-12-09T19:59:40.626Z,6.80
2018-12-09T20:02:08.123Z,6.80
2018-12-09T20:04:35.680Z,6.80
2018-12-09T20:07:03.261Z,6.80
2018-12-09T20:09:30.762Z,6.90
2018-12-09T20:11:58.278Z,6.80
2018-12-09T20:14:25.779Z,6.80
2018-12-09T20:16:53.321Z,6.90
2018-12-09T20:19:20.874Z,6.90
2018-12-09T20:21:48.378Z,6.90
2018-12-09T20:24:15.921Z,6.90
2018-12-09T20:26:43.438Z,6.90
2018-12-09T20:29:11.027Z,6.90
2018-12-09T20:31:38.587Z,6.90
2018-12-09T20:34:06.118Z,7.00
2018-12-09T20:36:33.645Z,7.00
2018-12-09T20:39:01.172Z,7.00
2018-12-09T20:41:28.673Z,7.00
2018-12-09T20:43:56.178Z,7.00
2018-12-09T20:46:23.724Z,7.00
2018-12-09T20:48:51.257Z,7.10
2018-12-09T20:51:18.768Z,7.10
2018-12-09T20:53:46.321Z,7.10
2018-12-09T20:56:13.818Z,7.10
2018-12-09T20:58:41.326Z,7.10
2018-12-09T21:01:08.882Z,7.10
2018-12-09T21:03:36.409Z,7.10
2018-12-09T21:06:03.995Z,7.00
2018-12-09T21:08:31.523Z,7.10
2018-12-09T21:10:59.057Z,7.10
2018-12-09T21:13:26.566Z,7.10
2018-12-09T21:15:54.082Z,7.00
2018-12-09T21:18:21.610Z,7.00
2018-12-09T21:20:49.104Z,7.00
2018-12-09T21:23:16.634Z,7.00
2018-12-09T21:25:44.178Z,7.00
2018-12-09T21:28:11.713Z,7.00
2018-12-09T21:30:39.265Z,6.90
2018-12-09T21:33:06.792Z,6.90
2018-12-09T21:35:34.340Z,6.90
2018-12-09T21:38:01.865Z,6.90
2018-12-09T21:40:29.393Z,6.90
2018-12-09T21:42:57.825Z,6.90
2018-12-09T21:45:25.353Z,6.90
2018-12-09T21:47:52.880Z,6.90
2018-12-09T21:50:20.382Z,6.90
2018-12-09T21:52:47.928Z,6.90
2018-12-09T21:55:15.424Z,6.90
2018-12-09T21:57:42.930Z,6.90
2018-12-09T22:00:10.543Z,6.90
2018-12-09T22:02:38.095Z,6.80
2018-12-09T22:05:06.603Z,6.80
2018-12-09T22:07:34.213Z,6.80
2018-12-09T22:10:01.737Z,6.70
2018-12-09T22:12:29.411Z,6.70
2018-12-09T22:14:56.936Z,6.60
2018-12-09T22:17:24.432Z,6.60
2018-12-09T22:19:51.953Z,6.60
2018-12-09T22:22:19.472Z,6.60
2018-12-09T22:24:46.989Z,6.50
2018-12-09T22:27:14.512Z,6.60
2018-12-09T22:29:42.057Z,6.60
2018-12-09T22:32:09.585Z,6.60
2018-12-09T22:34:37.082Z,6.60
2018-12-09T22:37:04.611Z,6.50
2018-12-09T22:39:32.132Z,6.60
2018-12-09T22:41:59.766Z,6.60
2018-12-09T22:44:27.300Z,6.60
2018-12-09T22:46:54.826Z,6.60
2018-12-09T22:49:22.378Z,6.70
2018-12-09T22:51:49.910Z,6.70
2018-12-09T22:54:18.089Z,6.70
2018-12-09T22:56:45.757Z,6.70
2018-12-09T22:59:13.258Z,6.60
2018-12-09T23:01:42.854Z,6.60
2018-12-09T23:04:10.365Z,6.60
2018-12-09T23:06:37.901Z,6.60
2018-12-09T23:09:05.603Z,6.70
2018-12-09T23:11:33.150Z,6.60
2018-12-09T23:14:00.668Z,6.60
2018-12-09T23:16:28.199Z,6.60
2018-12-09T23:18:55.909Z,6.60
2018-12-09T23:21:23.433Z,6.60
2018-12-09T23:23:50.952Z,6.70
2018-12-09T23:26:18.548Z,6.70
2018-12-09T23:28:46.073Z,6.60
2018-12-09T23:31:13.593Z,6.60
2018-12-09T23:33:41.116Z,6.60
2018-12-09T23:36:08.693Z,6.60
2018-12-09T23:38:36.194Z,6.70
2018-12-09T23:41:03.726Z,6.50
2018-12-09T23:43:31.327Z,6.50
2018-12-09T23:45:58.853Z,6.60
2018-12-09T23:48:26.409Z,6.60
2018-12-09T23:50:53.913Z,6.50
2018-12-09T23:53:21.426Z,6.60
2018-12-09T23:55:49.085Z,6.60
2018-12-09T23:58:16.730Z,6.50
